createdAt,value
2018-02-04T00:00:05.560Z,2.10
2018-02-04T00:02:33.896Z,2.20
2018-02-04T00:05:02.276Z,2.20
2018-02-04T00:07:30.525Z,2.20
2018-02-04T00:09:58.837Z,2.20
2018-02-04T00:12:26.326Z,2.20
2018-02-04T00:14:53.793Z,2.20
2018-02-04T00:17:21.289Z,2.20
2018-02-04T00:19:49.529Z,2.00
2018-02-04T00:22:28.993Z,2.00
2018-02-04T00:24:56.472Z,2.10
2018-02-04T00:27:24.717Z,2.00
2018-02-04T00:29:52.213Z,2.00
2018-02-04T00:32:19.733Z,2.00
2018-02-04T00:34:47.973Z,1.90
2018-02-04T00:37:15.512Z,1.90
2018-02-04T00:39:43.293Z,2.00
2018-02-04T00:42:10.769Z,2.00
2018-02-04T00:44:38.276Z,1.80
2018-02-04T00:47:05.760Z,1.80
2018-02-04T00:49:33.233Z,1.70
2018-02-04T00:52:00.733Z,1.60
2018-02-04T00:54:28.978Z,1.50
2018-02-04T00:56:56.453Z,1.50
2018-02-04T00:59:23.948Z,1.40
2018-02-04T01:01:51.425Z,1.50
2018-02-04T01:04:18.903Z,1.70
2018-02-04T01:06:46.389Z,1.70
2018-02-04T01:09:14.640Z,1.70
2018-02-04T01:11:43.179Z,1.70
2018-02-04T01:14:11.521Z,1.90
2018-02-04T01:16:39.017Z,1.80
2018-02-04T01:19:06.848Z,1.90
2018-02-04T01:21:34.313Z,1.90
2018-02-04T01:24:02.549Z,2.10
2018-02-04T01:26:30.017Z,2.00
2018-02-04T01:28:57.509Z,2.10
2018-02-04T01:31:25.746Z,2.10
2018-02-04T01:33:53.241Z,2.10
2018-02-04T01:36:21.499Z,2.10
2018-02-04T01:38:49.589Z,2.10
2018-02-04T01:41:17.089Z,2.10
2018-02-04T01:43:44.577Z,2.10
2018-02-04T01:46:12.055Z,2.10
2018-02-04T01:48:40.289Z,2.00
2018-02-04T01:51:07.788Z,2.00
2018-02-04T01:53:36.028Z,1.90
2018-02-04T01:56:03.564Z,1.90
2018-02-04T01:58:31.057Z,1.90
2018-02-04T02:00:58.524Z,1.90
2018-02-04T02:03:26.765Z,1.80
2018-02-04T02:05:54.256Z,1.80
2018-02-04T02:08:22.513Z,1.80
2018-02-04T02:10:49.992Z,1.70
2018-02-04T02:13:18.269Z,1.80
2018-02-04T02:15:46.508Z,1.80
2018-02-04T02:18:14.256Z,1.80
2018-02-04T02:20:41.753Z,1.80
2018-02-04T02:23:09.221Z,1.70
2018-02-04T02:25:37.757Z,1.70
2018-02-04T02:28:05.253Z,1.70
2018-02-04T02:30:34.123Z,1.70
2018-02-04T02:33:02.138Z,1.70
2018-02-04T02:35:29.931Z,1.60
2018-02-04T02:37:57.408Z,1.60
2018-02-04T02:40:24.886Z,1.60
2018-02-04T02:42:52.381Z,1.60
2018-02-04T02:45:19.861Z,1.60
2018-02-04T02:47:47.341Z,1.60
2018-02-04T02:50:14.844Z,1.60
2018-02-04T02:52:42.324Z,1.60
2018-02-04T02:55:09.840Z,1.60
2018-02-04T02:57:38.105Z,1.70
2018-02-04T03:00:05.574Z,1.70
2018-02-04T03:02:33.051Z,1.80
2018-02-04T03:05:01.318Z,1.80
2018-02-04T03:07:29.564Z,1.90
2018-02-04T03:09:57.045Z,1.90
2018-02-04T03:12:24.536Z,1.90
2018-02-04T03:14:52.025Z,1.60
2018-02-04T03:17:19.501Z,1.70
2018-02-04T03:19:46.996Z,1.70
2018-02-04T03:22:14.473Z,1.80
2018-02-04T03:24:41.949Z,1.80
2018-02-04T03:27:09.444Z,1.90
2018-02-04T03:29:37.689Z,1.90
2018-02-04T03:32:05.161Z,1.90
2018-02-04T03:34:32.661Z,1.90
2018-02-04T03:37:00.141Z,1.90
2018-02-04T03:39:27.652Z,1.90
2018-02-04T03:41:56.185Z,1.90
2018-02-04T03:44:23.660Z,1.90
2018-02-04T03:46:51.133Z,1.90
2018-02-04T03:49:18.624Z,2.00
2018-02-04T03:51:46.867Z,2.00
2018-02-04T03:54:14.345Z,2.00
2018-02-04T03:56:42.601Z,1.90
2018-02-04T03:59:10.073Z,1.90
2018-02-04T04:01:38.317Z,1.80
2018-02-04T04:04:05.809Z,1.80
2018-02-04T04:06:34.048Z,1.70
2018-02-04T04:09:01.541Z,1.70
2018-02-04T04:11:29.824Z,1.80
2018-02-04T04:13:58.061Z,1.80
2018-02-04T04:16:25.537Z,1.80
2018-02-04T04:18:53.045Z,1.90
2018-02-04T04:21:20.517Z,1.80
2018-02-04T04:23:47.998Z,1.80
2018-02-04T04:26:17.009Z,1.90
2018-02-04T04:28:46.217Z,1.90
2018-02-04T04:31:14.460Z,1.80
2018-02-04T04:33:41.949Z,1.80
2018-02-04T04:36:10.197Z,1.40
2018-02-04T04:38:37.676Z,1.40
2018-02-04T04:41:05.936Z,1.60
2018-02-04T04:43:33.415Z,1.50
2018-02-04T04:46:01.653Z,1.60
2018-02-04T04:48:29.153Z,1.60
2018-02-04T04:50:57.397Z,1.70
2018-02-04T04:53:26.384Z,1.80
2018-02-04T04:55:55.388Z,1.80
2018-02-04T04:58:22.857Z,1.80
2018-02-04T05:00:50.406Z,1.90
2018-02-04T05:03:18.745Z,1.90
2018-02-04T05:05:46.221Z,1.90
2018-02-04T05:08:13.693Z,1.90
2018-02-04T05:10:41.189Z,1.90
2018-02-04T05:13:08.665Z,1.80
2018-02-04T05:15:36.133Z,1.70
2018-02-04T05:18:03.620Z,1.70
2018-02-04T05:20:31.097Z,1.80
2018-02-04T05:22:59.344Z,1.90
2018-02-04T05:25:26.841Z,1.90
2018-02-04T05:27:55.076Z,1.80
2018-02-04T05:30:22.554Z,1.80
2018-02-04T05:32:50.821Z,1.60
2018-02-04T05:35:18.296Z,1.60
2018-02-04T05:37:46.540Z,1.40
2018-02-04T05:40:14.276Z,1.40
2018-02-04T05:42:41.753Z,1.30
2018-02-04T05:45:09.229Z,1.20
2018-02-04T05:47:36.724Z,1.10
2018-02-04T05:50:04.202Z,1.10
2018-02-04T05:52:31.689Z,1.10
2018-02-04T05:54:59.189Z,1.10
2018-02-04T05:57:26.669Z,1.20
2018-02-04T05:59:54.145Z,1.30
2018-02-04T06:02:21.648Z,1.40
2018-02-04T06:04:49.925Z,1.50
2018-02-04T06:07:18.165Z,1.50
2018-02-04T06:09:45.663Z,1.50
2018-02-04T06:12:13.900Z,1.60
2018-02-04T06:14:41.369Z,1.50
2018-02-04T06:17:08.857Z,1.60
2018-02-04T06:19:37.105Z,1.60
2018-02-04T06:22:04.589Z,1.60
2018-02-04T06:24:32.845Z,1.40
2018-02-04T06:27:00.321Z,1.30
2018-02-04T06:29:28.565Z,1.60
2018-02-04T06:31:56.061Z,1.60
2018-02-04T06:34:23.537Z,1.70
2018-02-04T06:36:51.008Z,1.80
2018-02-04T06:39:18.502Z,1.80
2018-02-04T06:41:45.982Z,1.60
2018-02-04T06:44:14.224Z,1.40
2018-02-04T06:46:41.958Z,1.40
2018-02-04T06:49:09.449Z,1.30
2018-02-04T06:51:38.433Z,1.20
2018-02-04T06:54:05.921Z,1.20
2018-02-04T06:56:34.164Z,1.40
2018-02-04T06:59:01.641Z,1.30
2018-02-04T07:01:29.913Z,1.20
2018-02-04T07:03:58.893Z,1.10
2018-02-04T07:06:26.424Z,1.00
2018-02-04T07:08:54.653Z,1.10
2018-02-04T07:11:22.904Z,1.10
2018-02-04T07:13:50.380Z,1.10
2018-02-04T07:16:18.658Z,1.30
2018-02-04T07:18:46.937Z,1.20
2018-02-04T07:21:15.181Z,1.20
2018-02-04T07:23:42.682Z,1.10
2018-02-04T07:26:10.921Z,1.20
2018-02-04T07:28:38.397Z,1.20
2018-02-04T07:31:06.668Z,1.30
2018-02-04T07:33:34.917Z,1.30
2018-02-04T07:36:02.393Z,1.30
2018-02-04T07:38:29.881Z,1.30
2018-02-04T07:40:57.356Z,1.30
2018-02-04T07:43:24.837Z,1.30
2018-02-04T07:45:52.334Z,1.30
2018-02-04T07:48:20.905Z,1.30
2018-02-04T07:50:48.361Z,1.30
2018-02-04T07:53:15.853Z,1.40
2018-02-04T07:55:43.330Z,1.50
2018-02-04T07:58:10.809Z,1.60
2018-02-04T08:00:38.561Z,1.70
2018-02-04T08:03:06.036Z,1.60
2018-02-04T08:05:33.781Z,1.70
2018-02-04T08:08:01.277Z,1.70
2018-02-04T08:10:28.747Z,1.80
2018-02-04T08:12:56.309Z,1.80
2018-02-04T08:15:23.801Z,1.80
2018-02-04T08:17:51.281Z,1.70
2018-02-04T08:20:18.760Z,1.80
2018-02-04T08:22:46.573Z,1.90
2018-02-04T08:25:14.049Z,2.00
2018-02-04T08:27:41.522Z,2.10
2018-02-04T08:30:09.017Z,2.10
2018-02-04T08:32:36.489Z,2.10
2018-02-04T08:35:04.726Z,2.10
2018-02-04T08:37:33.046Z,2.10
2018-02-04T08:40:00.738Z,2.10
2018-02-04T08:42:28.213Z,2.00
2018-02-04T08:44:55.710Z,2.10
2018-02-04T08:47:23.952Z,2.20
2018-02-04T08:49:51.441Z,2.20
2018-02-04T08:52:19.696Z,2.30
2018-02-04T08:54:47.169Z,2.30
2018-02-04T08:57:14.637Z,2.50
2018-02-04T08:59:42.894Z,3.10
2018-02-04T09:02:10.401Z,3.10
2018-02-04T09:04:37.853Z,3.30
2018-02-04T09:07:05.345Z,3.40
2018-02-04T09:09:32.817Z,3.50
2018-02-04T09:12:00.284Z,3.60
2018-02-04T09:14:27.896Z,3.80
2018-02-04T09:16:55.388Z,3.80
2018-02-04T09:19:22.890Z,3.80
2018-02-04T09:21:50.385Z,3.50
2018-02-04T09:24:17.857Z,3.60
2018-02-04T09:26:45.325Z,3.60
2018-02-04T09:29:12.821Z,3.70
2018-02-04T09:31:40.297Z,3.80
2018-02-04T09:34:07.768Z,3.80
2018-02-04T09:36:35.252Z,3.70
2018-02-04T09:39:02.726Z,3.60
2018-02-04T09:41:30.965Z,3.60
2018-02-04T09:43:58.459Z,3.60
2018-02-04T09:46:26.701Z,3.80
2018-02-04T09:48:54.172Z,3.70
2018-02-04T09:51:21.665Z,3.70
2018-02-04T09:53:49.138Z,3.70
2018-02-04T09:56:16.605Z,3.70
2018-02-04T09:58:44.156Z,3.70
2018-02-04T10:01:12.501Z,3.80
2018-02-04T10:03:40.741Z,3.90
2018-02-04T10:06:08.229Z,3.90
2018-02-04T10:08:36.477Z,4.10
2018-02-04T10:11:03.948Z,4.10
2018-02-04T10:13:31.437Z,4.10
2018-02-04T10:15:58.913Z,4.00
2018-02-04T10:18:26.435Z,3.90
2018-02-04T10:20:53.926Z,3.80
2018-02-04T10:23:21.393Z,3.70
2018-02-04T10:25:48.869Z,3.70
2018-02-04T10:28:16.422Z,3.60
2018-02-04T10:30:43.905Z,3.80
2018-02-04T10:33:11.345Z,3.90
2018-02-04T10:35:38.841Z,3.90
2018-02-04T10:38:07.084Z,3.80
2018-02-04T10:40:34.557Z,3.80
2018-02-04T10:43:02.045Z,3.70
2018-02-04T10:45:30.549Z,3.70
2018-02-04T10:47:58.026Z,3.70
2018-02-04T10:50:25.517Z,3.70
2018-02-04T10:52:53.045Z,3.60
2018-02-04T10:55:20.525Z,3.60
2018-02-04T10:57:48.784Z,3.70
2018-02-04T11:00:16.252Z,3.60
2018-02-04T11:02:43.725Z,3.70
2018-02-04T11:05:12.253Z,3.80
2018-02-04T11:07:39.724Z,3.70
2018-02-04T11:10:07.193Z,3.80
2018-02-04T11:12:34.685Z,3.90
2018-02-04T11:15:02.185Z,3.90
2018-02-04T11:17:29.657Z,3.90
2018-02-04T11:19:57.157Z,3.90
2018-02-04T11:22:25.397Z,4.00
2018-02-04T11:24:52.876Z,3.90
2018-02-04T11:27:20.369Z,4.00
2018-02-04T11:29:47.845Z,4.10
2018-02-04T11:32:23.972Z,4.10
2018-02-04T11:34:51.766Z,4.20
2018-02-04T11:37:19.249Z,4.30
2018-02-04T11:39:46.741Z,4.20
2018-02-04T11:42:14.982Z,4.20
2018-02-04T11:44:42.470Z,4.30
2018-02-04T11:47:10.805Z,4.30
2018-02-04T11:49:39.016Z,4.30
2018-02-04T11:52:07.258Z,4.30
2018-02-04T11:54:34.753Z,4.30
2018-02-04T11:57:02.990Z,4.00
2018-02-04T11:59:30.461Z,4.00
2018-02-04T12:01:57.957Z,4.00
2018-02-04T12:04:26.193Z,4.00
2018-02-04T12:06:53.661Z,4.00
2018-02-04T12:09:21.341Z,4.00
2018-02-04T12:11:49.576Z,4.20
2018-02-04T12:14:17.052Z,4.20
2018-02-04T12:16:44.541Z,4.20
2018-02-04T12:19:12.789Z,4.30
2018-02-04T12:21:40.509Z,4.30
2018-02-04T12:24:08.033Z,4.40
2018-02-04T12:26:35.493Z,4.50
2018-02-04T12:29:03.733Z,4.50
2018-02-04T12:31:31.229Z,4.50
2018-02-04T12:33:59.469Z,4.60
2018-02-04T12:36:26.945Z,4.60
2018-02-04T12:38:54.504Z,4.40
2018-02-04T12:41:22.740Z,4.20
2018-02-04T12:43:50.209Z,4.20
2018-02-04T12:46:17.703Z,4.30
2018-02-04T12:48:45.941Z,4.60
2018-02-04T12:51:13.415Z,4.60
2018-02-04T12:53:41.684Z,4.70
2018-02-04T12:56:09.204Z,4.70
2018-02-04T12:58:37.408Z,4.60
2018-02-04T13:01:04.901Z,4.60
2018-02-04T13:03:33.148Z,4.20
2018-02-04T13:06:00.617Z,4.20
2018-02-04T13:08:28.121Z,4.30
2018-02-04T13:10:55.601Z,4.50
2018-02-04T13:13:23.073Z,4.50
2018-02-04T13:15:50.585Z,4.10
2018-02-04T13:18:18.066Z,3.80
2018-02-04T13:20:45.537Z,3.80
2018-02-04T13:23:13.078Z,3.90
2018-02-04T13:25:40.553Z,4.00
2018-02-04T13:28:08.021Z,3.70
2018-02-04T13:30:35.517Z,3.70
2018-02-04T13:33:03.057Z,3.80
2018-02-04T13:35:31.294Z,4.00
2018-02-04T13:37:58.790Z,4.00
2018-02-04T13:40:27.029Z,3.90
2018-02-04T13:42:54.501Z,3.90
2018-02-04T13:45:21.993Z,3.90
2018-02-04T13:47:50.230Z,3.50
2018-02-04T13:50:17.701Z,3.50
2018-02-04T13:52:45.193Z,3.30
2018-02-04T13:55:12.661Z,3.00
2018-02-04T13:57:40.142Z,2.90
2018-02-04T14:00:07.637Z,2.80
2018-02-04T14:02:35.878Z,2.80
2018-02-04T14:05:03.349Z,2.70
2018-02-04T14:07:31.619Z,2.60
2018-02-04T14:09:59.090Z,2.50
2018-02-04T14:12:26.565Z,2.60
2018-02-04T14:14:54.825Z,2.60
2018-02-04T14:17:22.297Z,2.60
2018-02-04T14:19:50.625Z,2.60
2018-02-04T14:22:18.148Z,2.60
2018-02-04T14:24:46.551Z,2.60
2018-02-04T14:27:14.021Z,2.60
2018-02-04T14:29:41.517Z,2.50
2018-02-04T14:32:08.997Z,2.30
2018-02-04T14:34:37.509Z,1.80
2018-02-04T14:37:05.008Z,1.80
2018-02-04T14:39:32.490Z,1.70
2018-02-04T14:42:00.034Z,1.60
2018-02-04T14:44:27.530Z,1.80
2018-02-04T14:46:55.001Z,1.80
2018-02-04T14:49:22.480Z,1.80
2018-02-04T14:51:49.985Z,1.70
2018-02-04T14:54:17.776Z,1.80
2018-02-04T14:56:45.249Z,1.80
2018-02-04T14:59:12.737Z,1.90
2018-02-04T15:01:41.209Z,1.90
2018-02-04T15:04:08.690Z,1.90
2018-02-04T15:06:37.209Z,1.90
2018-02-04T15:09:04.680Z,1.90
2018-02-04T15:11:32.169Z,1.70
2018-02-04T15:13:59.669Z,1.60
2018-02-04T15:16:27.449Z,1.40
2018-02-04T15:18:54.947Z,1.30
2018-02-04T15:21:22.474Z,1.30
2018-02-04T15:23:49.960Z,1.10
2018-02-04T15:26:17.449Z,1.10
2018-02-04T15:28:45.125Z,1.00
2018-02-04T15:31:12.600Z,1.10
2018-02-04T15:33:40.077Z,1.00
2018-02-04T15:36:07.606Z,1.10
2018-02-04T15:38:35.379Z,1.00
2018-02-04T15:41:02.853Z,1.00
2018-02-04T15:43:30.353Z,0.90
2018-02-04T15:45:58.776Z,1.00
2018-02-04T15:48:26.269Z,1.00
2018-02-04T15:50:53.831Z,1.10
2018-02-04T15:53:22.073Z,1.20
2018-02-04T15:55:49.554Z,1.20
2018-02-04T15:58:17.052Z,1.30
2018-02-04T16:00:44.547Z,1.20
2018-02-04T16:03:12.037Z,1.10
2018-02-04T16:05:39.544Z,1.00
2018-02-04T16:08:07.021Z,1.00
2018-02-04T16:10:34.533Z,1.10
2018-02-04T16:13:02.101Z,1.20
2018-02-04T16:15:29.581Z,1.10
2018-02-04T16:17:57.057Z,1.00
2018-02-04T16:20:24.555Z,1.10
2018-02-04T16:22:52.806Z,1.20
2018-02-04T16:25:20.301Z,1.20
2018-02-04T16:27:47.846Z,1.20
2018-02-04T16:30:16.117Z,1.30
2018-02-04T16:32:44.364Z,1.30
2018-02-04T16:35:11.869Z,1.30
2018-02-04T16:37:39.374Z,1.30
2018-02-04T16:40:06.893Z,1.30
2018-02-04T16:42:34.401Z,1.30
2018-02-04T16:45:01.917Z,1.40
2018-02-04T16:47:29.422Z,1.40
2018-02-04T16:49:56.917Z,1.40
2018-02-04T16:52:24.423Z,1.40
2018-02-04T16:54:52.034Z,1.40
2018-02-04T16:57:19.545Z,1.40
2018-02-04T16:59:47.021Z,1.40
2018-02-04T17:02:14.496Z,1.40
2018-02-04T17:04:42.783Z,1.30
2018-02-04T17:07:10.257Z,1.30
2018-02-04T17:09:37.733Z,1.40
2018-02-04T17:12:05.233Z,1.40
2018-02-04T17:14:33.484Z,1.40
2018-02-04T17:17:00.970Z,1.30
2018-02-04T17:19:29.242Z,1.30
2018-02-04T17:21:57.485Z,1.40
2018-02-04T17:24:24.972Z,1.30
2018-02-04T17:26:53.279Z,1.30
2018-02-04T17:29:20.775Z,1.30
2018-02-04T17:31:48.249Z,1.30
2018-02-04T17:34:16.513Z,1.30
2018-02-04T17:36:43.988Z,1.30
2018-02-04T17:39:11.466Z,1.40
2018-02-04T17:41:39.731Z,1.40
2018-02-04T17:44:07.546Z,1.40
2018-02-04T17:46:35.033Z,1.50
2018-02-04T17:49:03.309Z,1.50
2018-02-04T17:51:31.721Z,1.40
2018-02-04T17:54:00.001Z,1.50
2018-02-04T17:56:28.273Z,1.50
2018-02-04T17:58:56.525Z,1.50
2018-02-04T18:01:24.001Z,1.50
2018-02-04T18:03:52.267Z,1.50
2018-02-04T18:06:20.517Z,1.50
2018-02-04T18:08:47.997Z,1.50
2018-02-04T18:11:16.263Z,1.50
2018-02-04T18:13:43.736Z,1.50
2018-02-04T18:16:11.978Z,1.40
2018-02-04T18:18:39.480Z,1.40
2018-02-04T18:21:07.721Z,1.30
2018-02-04T18:23:35.198Z,1.30
2018-02-04T18:26:03.465Z,1.40
2018-02-04T18:28:30.941Z,1.30
2018-02-04T18:30:59.186Z,1.40
2018-02-04T18:33:26.706Z,1.40
2018-02-04T18:35:54.197Z,1.40
2018-02-04T18:38:23.469Z,1.30
2018-02-04T18:40:51.237Z,1.30
2018-02-04T18:43:18.717Z,1.20
2018-02-04T18:45:46.193Z,1.10
2018-02-04T18:48:13.693Z,1.20
2018-02-04T18:50:41.169Z,1.20
2018-02-04T18:53:08.645Z,1.00
2018-02-04T18:55:36.141Z,1.00
2018-02-04T18:58:04.389Z,1.00
2018-02-04T19:00:31.869Z,1.00
2018-02-04T19:03:00.393Z,1.00
2018-02-04T19:05:27.877Z,1.00
2018-02-04T19:07:55.357Z,1.00
2018-02-04T19:10:23.642Z,1.00
2018-02-04T19:12:51.892Z,1.00
2018-02-04T19:15:20.152Z,1.00
2018-02-04T19:17:47.653Z,1.00
2018-02-04T19:20:15.897Z,0.80
2018-02-04T19:22:43.378Z,0.80
2018-02-04T19:25:11.649Z,0.90
2018-02-04T19:27:39.897Z,0.90
2018-02-04T19:30:07.377Z,0.90
2018-02-04T19:32:34.885Z,1.00
2018-02-04T19:35:02.414Z,1.10
2018-02-04T19:37:29.879Z,1.10
2018-02-04T19:39:58.132Z,1.10
2018-02-04T19:42:26.374Z,1.00
2018-02-04T19:44:53.857Z,1.00
2018-02-04T19:47:21.362Z,0.90
2018-02-04T19:49:49.237Z,1.00
2018-02-04T19:52:16.724Z,0.90
2018-02-04T19:54:44.224Z,0.90
2018-02-04T19:57:11.754Z,1.00
2018-02-04T19:59:39.201Z,0.90
2018-02-04T20:02:07.465Z,0.80
2018-02-04T20:04:34.946Z,0.80
2018-02-04T20:07:02.420Z,0.80
2018-02-04T20:09:30.685Z,0.90
2018-02-04T20:11:58.933Z,1.00
2018-02-04T20:14:26.404Z,1.00
2018-02-04T20:16:53.905Z,1.00
2018-02-04T20:19:21.385Z,1.10
2018-02-04T20:21:48.864Z,1.00
2018-02-04T20:24:16.359Z,1.00
2018-02-04T20:26:43.850Z,1.10
2018-02-04T20:29:11.329Z,1.10
2018-02-04T20:31:38.829Z,1.20
2018-02-04T20:34:19.114Z,1.20
2018-02-04T20:36:46.617Z,1.20
2018-02-04T20:39:14.101Z,1.30
2018-02-04T20:41:42.624Z,0.90
2018-02-04T20:44:10.121Z,0.90
2018-02-04T20:46:37.604Z,0.90
2018-02-04T20:49:05.082Z,1.00
2018-02-04T20:51:32.585Z,0.90
2018-02-04T20:54:00.069Z,1.00
2018-02-04T20:56:28.313Z,1.00
2018-02-04T20:58:57.324Z,1.10
2018-02-04T21:01:24.804Z,1.10
2018-02-04T21:03:52.300Z,1.20
2018-02-04T21:06:19.801Z,1.20
2018-02-04T21:08:48.036Z,1.20
2018-02-04T21:11:15.514Z,1.10
2018-02-04T21:13:43.047Z,1.20
2018-02-04T21:16:10.528Z,1.20
2018-02-04T21:18:38.784Z,1.30
2018-02-04T21:21:06.281Z,1.30
2018-02-04T21:23:34.529Z,1.30
2018-02-04T21:26:02.005Z,1.30
2018-02-04T21:28:29.505Z,1.30
2018-02-04T21:30:56.995Z,1.20
2018-02-04T21:33:24.479Z,1.00
2018-02-04T21:35:52.017Z,1.00
2018-02-04T21:38:19.477Z,0.90
2018-02-04T21:40:46.952Z,0.70
2018-02-04T21:43:14.453Z,0.70
2018-02-04T21:45:41.934Z,0.60
2018-02-04T21:48:09.409Z,0.60
2018-02-04T21:50:36.905Z,0.50
2018-02-04T21:53:04.397Z,0.60
2018-02-04T21:55:31.872Z,0.60
2018-02-04T21:57:59.377Z,0.60
2018-02-04T22:00:26.853Z,0.70
2018-02-04T22:02:54.330Z,0.80
2018-02-04T22:05:22.085Z,0.70
2018-02-04T22:07:49.566Z,0.70
2018-02-04T22:10:17.050Z,0.60
2018-02-04T22:12:45.320Z,0.60
2018-02-04T22:15:12.798Z,0.60
2018-02-04T22:17:41.041Z,0.50
2018-02-04T22:20:10.049Z,0.40
2018-02-04T22:22:38.305Z,0.50
2018-02-04T22:25:06.547Z,0.40
2018-02-04T22:27:34.100Z,0.40
2018-02-04T22:30:01.573Z,0.40
2018-02-04T22:32:29.066Z,0.40
2018-02-04T22:34:56.565Z,0.60
2018-02-04T22:37:24.041Z,0.60
2018-02-04T22:39:51.566Z,0.70
2018-02-04T22:42:19.027Z,0.60
2018-02-04T22:44:46.503Z,0.40
2018-02-04T22:47:13.981Z,0.20
2018-02-04T22:49:41.473Z,0.30
2018-02-04T22:52:08.953Z,0.30
2018-02-04T22:54:37.196Z,0.40
2018-02-04T22:57:06.201Z,0.50
2018-02-04T22:59:33.676Z,0.50
2018-02-04T23:02:01.962Z,0.50
2018-02-04T23:04:29.469Z,0.50
2018-02-04T23:06:56.944Z,0.60
2018-02-04T23:09:24.421Z,0.60
2018-02-04T23:11:52.682Z,0.70
2018-02-04T23:14:20.156Z,0.60
2018-02-04T23:16:47.653Z,0.70
2018-02-04T23:19:15.148Z,0.70
2018-02-04T23:21:42.624Z,0.70
2018-02-04T23:24:10.865Z,0.70
2018-02-04T23:26:38.361Z,0.70
2018-02-04T23:29:06.602Z,0.60
2018-02-04T23:31:34.081Z,0.60
2018-02-04T23:34:02.344Z,0.30
2018-02-04T23:36:29.856Z,0.30
2018-02-04T23:38:57.337Z,0.40
2018-02-04T23:41:24.833Z,0.40
2018-02-04T23:43:53.076Z,-0.30
2018-02-04T23:46:20.560Z,-0.30
2018-02-04T23:48:48.825Z,-0.50
2018-02-04T23:51:16.305Z,-0.50
2018-02-04T23:53:44.553Z,-0.60
2018-02-04T23:56:12.282Z,-0.60
2018-02-04T23:58:39.761Z,-0.70
